M I D A S
Marine Information and Data Acquisition System
Tripno 1993 of the Zeeleeuw from 2010-07-06 06:52:40 to 2010-07-06 13:51:27
Back to CruiseResearch ActivitiesStationsMapUnderway DataData graphs

EquipmentUnitsComment
TimeDGPSUTC
LatitudeDGPSDM.mWGS84
LongitudeDGPSDM.mWGS84
TemperatureSBE03/SBE38deg celciusITS90
ConductivitySBE21S/mITS90
SalinitySBE21 Practical Salinity Units
ChlorophylAChelsea fluorimeterg/lCalibrated in Aceton
Missing or incorrect values are displayed as -999
Sea surface data collected by the RV Zeeleeuw from 2010-07-06 06:44:44 to 2010-07-06 13:54:39
Time Latitude Longitude Temperature Conductivity Salinity ChlorophylA
2010-07-06 06:45:52 51°13.675 2°55.91 22.7319 0.069428 0.365596 -1.000568
2010-07-06 06:46:53 51°13.708 2°55.816 22.7253 0.069428 0.365663 -1.035392
2010-07-06 06:47:53 51°13.749 2°55.748 22.6852 0.069428 0.365668 -1.000568
2010-07-06 06:48:53 51°13.797 2°55.677 22.7343 0.069428 0.365663 -1.000568
2010-07-06 06:49:53 51°13.869 2°55.64 22.7379 0.069428 0.365696 -1.000568
2010-07-06 06:50:53 51°13.937 2°55.667 22.711 0.069428 0.365719 -1.000568
2010-07-06 06:51:52 51°13.94 2°55.643 22.4913 0.069428 0.36554 -0.965744
2010-07-06 06:52:50 51°13.989 2°55.549 22.6403 0.069428 0.36535 -1.000568
2010-07-06 06:53:49 51°14.105 2°55.439 22.6287 0.069532 0.365903 -1.000568
2010-07-06 06:54:49 51°14.25 2°55.317 22.6607 0.069532 0.365808 -0.965744
2010-07-06 06:55:49 51°14.399 2°55.177 22.6393 0.069532 0.365802 -0.965744
2010-07-06 06:56:49 51°14.556 2°55.037 22.6891 0.069532 0.365791 -1.000568
2010-07-06 06:57:49 51°14.723 2°54.864 22.6132 0.069532 0.365719 -1.000568
2010-07-06 06:58:49 51°14.896 2°54.654 22.6347 0.069532 0.365853 -1.000568
2010-07-06 06:59:49 51°15.072 2°54.441 22.6404 0.069532 0.365825 -1.000568
2010-07-06 07:00:49 51°15.254 2°54.238 22.6552 0.069532 0.365909 -1.035392
2010-07-06 07:01:49 51°15.437 2°54.039 22.6698 0.069532 0.365948 -1.035392
2010-07-06 07:02:49 51°15.609 2°53.819 22.6426 0.069532 0.366004 -1.000568
2010-07-06 07:03:49 51°15.779 2°53.597 22.6494 0.069532 0.36606 -1.000568
2010-07-06 07:04:49 51°15.966 2°53.411 22.6466 0.069532 0.365976 -1.000568
2010-07-06 07:05:49 51°16.178 2°53.288 22.4665 0.069428 0.365551 -1.000568
2010-07-06 07:06:49 51°16.389 2°53.163 22.563 0.007438 0.041723 -1.000568
2010-07-06 07:07:49 51°16.598 2°53.034 22.5923 0.015029 0.078403 -1.000568
2010-07-06 07:08:49 51°16.805 2°52.903 22.6006 0.035619 0.183041 -1.000568
2010-07-06 07:09:49 51°17.013 2°52.768 22.6228 0.035515 0.182463 -1.000568
2010-07-06 07:10:49 51°17.229 2°52.659 22.6496 0.035619 0.18311 -0.965744
2010-07-06 07:11:49 51°17.458 2°52.616 22.6681 0.00931 0.050718 -1.035392
2010-07-06 07:12:49 51°17.687 2°52.571 22.687 0.011389 0.06075 -1.000568
2010-07-06 07:13:49 51°17.917 2°52.537 22.7016 0.003799 0.025076 -1.000568
2010-07-06 07:14:48 51°18.145 2°52.548 22.7255 0.001304 0.014493 -1.000568
2010-07-06 07:15:49 51°18.38 2°52.562 22.7449 0.001304 0.014489 -1.035392
2010-07-06 07:16:49 51°18.612 2°52.574 22.7674 0.0012 0.014087 -0.965744
2010-07-06 07:17:49 51°18.843 2°52.584 22.7867 0.001408 0.014893 -1.035392
2010-07-06 07:18:49 51°19.076 2°52.592 22.809 0.0012 0.014083 -1.000568
2010-07-06 07:19:49 51°19.31 2°52.614 22.8276 0.000992 0.013298 -1.000568
2010-07-06 07:20:49 51°19.546 2°52.662 22.8486 0.0012 0.014079 -1.000568
2010-07-06 07:21:49 51°19.782 2°52.71 22.8697 0.000992 0.013294 -1.035392
2010-07-06 07:22:49 51°20.02 2°52.755 22.8897 0.000992 0.013292 -0.965744
2010-07-06 07:23:49 51°20.254 2°52.804 22.9141 0.000888 0.012911 -1.000568
2010-07-06 07:24:49 51°20.485 2°52.88 22.9362 0.000888 0.012908 -0.965744
2010-07-06 07:25:49 51°20.716 2°52.953 22.9491 0.000888 0.012906 -1.035392
2010-07-06 07:26:49 51°20.946 2°53.025 22.9733 0.000888 0.012904 -1.000568
2010-07-06 07:27:49 51°21.177 2°53.094 22.9892 0.000888 0.012902 -1.000568
2010-07-06 07:28:48 51°21.403 2°53.161 23.0211 0.000888 0.012899 -1.000568
2010-07-06 07:29:49 51°21.638 2°53.231 23.0392 0.000888 0.012896 -1.000568
2010-07-06 07:30:49 51°21.865 2°53.328 23.0683 0.000681 0.012166 -1.000568
2010-07-06 07:31:49 51°22.091 2°53.432 23.0898 0.000784 0.012524 -1.000568
2010-07-06 07:32:49 51°22.318 2°53.528 23.1161 0.000784 0.012521 -1.000568
2010-07-06 07:33:49 51°22.55 2°53.568 23.1245 0.000681 0.012159 -1.000568
2010-07-06 07:34:49 51°22.783 2°53.586 23.1506 0.000681 0.012157 -1.000568
2010-07-06 07:35:48 51°23.01 2°53.559 23.1691 0.000577 0.01181 -1.000568
2010-07-06 07:36:49 51°23.247 2°53.536 23.1897 0.000681 0.012153 -1.000568
2010-07-06 07:37:49 51°23.482 2°53.514 23.2192 0.000577 0.011806 -1.000568
2010-07-06 07:38:48 51°23.715 2°53.495 23.2484 0.000473 0.011476 -1.000568
2010-07-06 07:39:49 51°23.956 2°53.476 23.2602 0.000577 0.0118 -1.000568
2010-07-06 07:40:49 51°24.194 2°53.453 23.2806 0.000577 0.011799 -1.000568
2010-07-06 07:41:49 51°24.431 2°53.43 23.3085 0.000473 0.011469 -1.035392
2010-07-06 07:42:48 51°24.664 2°53.408 23.3262 0.000473 0.011465 -0.965744
2010-07-06 07:43:49 51°24.906 2°53.382 23.3487 0.000473 0.011463 -1.035392
2010-07-06 07:44:49 51°25.147 2°53.355 23.3805 0.000473 0.011464 -1.000568
2010-07-06 07:45:48 51°25.381 2°53.325 23.3854 0.000369 0.01116 -1.000568
2010-07-06 07:46:48 51°25.616 2°53.296 23.397 0.000265 0.010897 -0.965744
2010-07-06 07:47:48 51°25.849 2°53.266 23.43 0.000369 0.01116 -0.965744
2010-07-06 07:48:48 51°26.084 2°53.236 23.4403 0.000265 0.010891 -1.000568
2010-07-06 07:49:48 51°26.319 2°53.204 23.4777 0.000265 0.010888 -1.000568
2010-07-06 07:50:48 51°26.552 2°53.171 23.6208 0.001304 0.01439 -0.965744
2010-07-06 07:51:49 51°26.789 2°53.132 23.5916 0.002656 0.020034 -1.000568
2010-07-06 07:52:48 51°27.019 2°53.094 23.6001 0.00172 0.016062 -1.000568
2010-07-06 07:53:48 51°27.254 2°53.055 23.6145 0.001824 0.016492 -1.000568
2010-07-06 07:54:48 51°27.49 2°53.023 23.6155 0.001928 0.016927 -1.000568
2010-07-06 07:55:48 51°27.727 2°52.988 23.6227 0.002032 0.017365 -1.000568
2010-07-06 07:56:48 51°27.963 2°52.958 23.6179 0.002032 0.017363 -0.965744
2010-07-06 07:57:48 51°28.202 2°52.928 23.6254 0.001616 0.01564 -1.035392
2010-07-06 07:58:48 51°28.442 2°52.897 23.6195 0.001616 0.015638 -1.000568
2010-07-06 07:59:48 51°28.68 2°52.868 23.6451 0.00328 0.022781 -1.000568
2010-07-06 08:00:48 51°28.917 2°52.836 23.64 0.001512 0.015211 -0.965744
2010-07-06 08:01:48 51°29.155 2°52.808 23.6487 0.004007 0.026054 -1.035392
2010-07-06 08:02:48 51°29.393 2°52.794 23.6285 0.001304 0.014381 -1.035392
2010-07-06 08:03:48 51°29.629 2°52.826 23.631 0.001096 0.013564 -1.035392
2010-07-06 08:04:48 51°29.862 2°52.836 23.6381 0.000888 0.012782 -1.000568
2010-07-06 08:05:48 51°30.102 2°52.844 23.6482 0.000888 0.012779 -1.000568
2010-07-06 08:06:48 51°30.335 2°52.857 23.6527 0.000784 0.0124 -1.035392
2010-07-06 08:07:48 51°30.581 2°52.863 23.658 0.000888 0.012775 -1.000568
2010-07-06 08:08:49 51°30.825 2°52.874 23.665 0.000784 0.012395 -1.035392
2010-07-06 08:09:48 51°31.056 2°52.83 17.896 0.036556 0.19217 -0.896096
2010-07-06 08:10:49 51°31.224 2°52.742 17.5549 4.164398 31.240279 -0.687152
2010-07-06 08:11:49 51°31.282 2°52.67 17.5097 4.142984 31.368527 -0.652328
2010-07-06 08:12:49 51°31.306 2°52.621 17.5141 4.137182 31.372733 -0.652328
2010-07-06 08:13:51 51°31.317 2°52.653 17.4834 4.144779 31.444867 -0.617504
2010-07-06 08:14:52 51°31.332 2°52.698 17.3912 4.142247 31.457775 -0.617504
2010-07-06 08:15:52 51°31.336 2°52.702 17.3923 4.140666 31.509298 -0.617504
2010-07-06 08:16:52 51°31.336 2°52.694 17.4511 4.133702 31.438906 -0.617504
2010-07-06 08:17:52 51°31.338 2°52.694 17.4908 4.135706 31.423199 -0.652328
2010-07-06 08:18:51 51°31.34 2°52.697 17.5021 4.132329 31.369283 -0.617504
2010-07-06 08:19:52 51°31.341 2°52.694 17.5093 4.139503 31.415967 -0.617504
2010-07-06 08:20:52 51°31.343 2°52.689 17.5169 4.142985 31.442065 -0.617504
2010-07-06 08:21:52 51°31.345 2°52.688 17.5308 4.138132 31.397612 -0.617504
2010-07-06 08:22:52 51°31.346 2°52.686 17.5231 4.145834 31.457172 -0.617504
2010-07-06 08:23:52 51°31.346 2°52.682 17.5222 4.143196 31.435974 -0.617504
2010-07-06 08:24:52 51°31.347 2°52.68 17.5238 4.143935 31.439411 -0.617504
2010-07-06 08:25:52 51°31.347 2°52.68 17.5177 4.141508 31.424499 -0.652328
2010-07-06 08:26:52 51°31.347 2°52.68 17.5203 4.145306 31.456085 -0.652328
2010-07-06 08:27:52 51°31.347 2°52.681 17.5237 4.145729 31.459657 -0.617504
2010-07-06 08:28:52 51°31.347 2°52.68 17.532 4.14098 31.420034 -0.617504
2010-07-06 08:29:52 51°31.347 2°52.68 17.5274 4.147733 31.471557 -0.617504
2010-07-06 08:30:52 51°31.347 2°52.678 17.5307 4.148261 31.474896 -0.652328
2010-07-06 08:31:52 51°31.347 2°52.675 17.5223 4.147839 31.473577 -0.58268
2010-07-06 08:32:51 51°31.348 2°52.673 17.5107 4.146995 31.472064 -0.652328
2010-07-06 08:33:51 51°31.348 2°52.673 17.4993 4.145518 31.469135 -0.652328
2010-07-06 08:34:51 51°31.349 2°52.675 17.4873 4.14499 31.47143 -0.617504
2010-07-06 08:35:51 51°31.349 2°52.676 17.4695 4.143724 31.47198 -0.617504
2010-07-06 08:36:51 51°31.348 2°52.676 17.4406 4.141509 31.46956 -0.617504
2010-07-06 08:37:51 51°31.348 2°52.676 17.3915 4.137816 31.470989 -0.617504
2010-07-06 08:38:52 51°31.348 2°52.675 17.373 4.133174 31.45815 -0.652328
2010-07-06 08:39:52 51°31.348 2°52.676 17.3622 4.130642 31.448521 -0.687152
2010-07-06 08:40:52 51°31.349 2°52.676 17.3549 4.129482 31.44771 -0.652328
2010-07-06 08:41:52 51°31.349 2°52.676 17.3581 4.128638 31.447327 -0.652328
2010-07-06 08:42:52 51°31.349 2°52.675 17.3567 4.128532 31.441907 -0.652328
2010-07-06 08:43:52 51°31.349 2°52.674 17.3593 4.128216 31.444307 -0.652328
2010-07-06 08:44:52 51°31.349 2°52.672 17.3489 4.128005 31.440818 -0.617504
2010-07-06 08:45:52 51°31.349 2°52.672 17.3511 4.127583 31.441757 -0.687152
2010-07-06 08:46:52 51°31.35 2°52.67 17.3529 4.127477 31.438033 -0.652328
2010-07-06 08:47:52 51°31.35 2°52.668 17.3569 4.127583 31.441191 -0.652328
2010-07-06 08:48:52 51°31.35 2°52.665 17.3568 4.127688 31.43926 -0.652328
2010-07-06 08:49:52 51°31.35 2°52.665 17.3557 4.127688 31.438695 -0.652328
2010-07-06 08:50:52 51°31.351 2°52.665 17.3608 4.127688 31.43926 -0.652328
2010-07-06 08:51:52 51°31.351 2°52.665 17.3573 4.12811 31.441149 -0.687152
2010-07-06 08:52:52 51°31.351 2°52.663 17.365 4.127899 31.438791 -0.652328
2010-07-06 08:53:52 51°31.351 2°52.662 17.3594 4.127899 31.438226 -0.687152
2010-07-06 08:54:52 51°31.347 2°52.649 17.3605 4.127688 31.436999 -0.687152
2010-07-06 08:55:52 51°31.337 2°52.632 17.3596 4.127899 31.43653 -0.687152
2010-07-06 08:56:52 51°31.323 2°52.628 17.3659 4.128005 31.43686 -0.687152
2010-07-06 08:58:26 51°31.311 2°52.609 17.373 4.12811 31.43267 -0.687152
2010-07-06 08:59:27 51°31.337 2°52.531 17.374 4.128005 31.428949 -0.687152
2010-07-06 09:00:27 51°31.442 2°52.572 17.3746 4.128427 31.430272 -0.721976
2010-07-06 09:01:27 51°31.562 2°52.82 17.3708 4.127794 31.429417 -0.687152
2010-07-06 09:02:27 51°31.705 2°53.12 17.3665 4.128638 31.440541 -0.687152
2010-07-06 09:03:27 51°31.862 2°53.42 17.3679 4.128954 31.441534 -0.652328
2010-07-06 09:04:27 51°32.025 2°53.714 17.4778 4.130537 31.453844 -0.687152
2010-07-06 09:05:27 51°32.188 2°54.008 17.5503 4.143724 31.471416 -0.652328
2010-07-06 09:06:27 51°32.331 2°54.318 17.5547 4.148472 31.471614 -0.652328
2010-07-06 09:07:27 51°32.441 2°54.67 17.501 4.148788 31.478235 -0.652328
2010-07-06 09:08:27 51°32.509 2°55.042 17.5186 4.146151 31.480695 -0.687152
2010-07-06 09:09:27 51°32.587 2°55.363 17.4828 4.150899 31.520347 -0.687152
2010-07-06 09:10:27 51°32.628 2°55.513 17.3983 4.148895 31.527081 -0.687152
2010-07-06 09:11:27 51°32.643 2°55.584 17.3574 4.151112 31.613878 -0.652328
2010-07-06 09:12:27 51°32.651 2°55.647 17.3257 4.151323 31.643537 -0.652328
2010-07-06 09:13:27 51°32.661 2°55.703 17.3022 4.150901 31.663305 -0.687152
2010-07-06 09:14:27 51°32.671 2°55.752 17.2844 4.149214 31.669468 -0.687152
2010-07-06 09:15:27 51°32.684 2°55.798 17.2859 4.150163 31.683835 -0.687152
2010-07-06 09:16:27 51°32.696 2°55.84 17.2867 4.150269 31.686447 -0.721976
2010-07-06 09:17:27 51°32.705 2°55.854 17.2886 4.150585 31.689143 -0.687152
2010-07-06 09:18:27 51°32.712 2°55.861 17.2787 4.151007 31.692167 -0.687152
2010-07-06 09:19:27 51°32.721 2°55.869 17.2843 4.151007 31.695594 -0.652328
2010-07-06 09:20:27 51°32.741 2°55.929 17.2882 4.151324 31.697719 -0.652328
2010-07-06 09:21:27 51°32.811 2°55.971 17.3021 4.151535 31.694946 -0.687152
2010-07-06 09:22:27 51°32.883 2°55.979 17.3197 4.153117 31.693004 -0.721976
2010-07-06 09:23:27 51°32.901 2°55.999 17.3128 4.154383 31.696362 -0.721976
2010-07-06 09:24:27 51°32.907 2°56.016 17.2791 4.153645 31.700351 -0.652328
2010-07-06 09:25:27 51°32.914 2°56.036 17.2935 4.149741 31.688808 -0.687152
2010-07-06 09:26:27 51°32.922 2°56.059 17.3272 4.152801 31.692593 -0.652328
2010-07-06 09:27:27 51°32.93 2°56.082 17.3336 4.155016 31.688626 -0.721976
2010-07-06 09:28:27 51°32.937 2°56.104 17.339 4.156177 31.687094 -0.721976
2010-07-06 09:29:27 51°32.942 2°56.12 17.3684 4.157337 31.693545 -0.687152
2010-07-06 09:30:27 51°32.948 2°56.131 17.3962 4.157443 31.681905 -0.687152
2010-07-06 09:31:27 51°32.954 2°56.14 17.3692 4.159869 31.688294 -0.687152
2010-07-06 09:32:27 51°32.962 2°56.147 17.3821 4.158392 31.692258 -0.652328
2010-07-06 09:33:27 51°32.969 2°56.16 17.3819 4.157865 31.689482 -0.652328
2010-07-06 09:34:27 51°32.974 2°56.18 17.36 4.157021 31.691994 -0.617504
2010-07-06 09:35:27 51°32.978 2°56.201 17.3426 4.157232 31.692648 -0.617504
2010-07-06 09:36:27 51°32.981 2°56.226 17.3719 4.157021 31.692564 -0.617504
2010-07-06 09:37:27 51°32.984 2°56.256 17.3656 4.157548 31.69534 -0.617504
2010-07-06 09:38:27 51°32.95 2°56.315 17.3735 4.158181 31.696163 -0.652328
2010-07-06 09:39:27 51°32.91 2°56.279 17.3844 4.157865 31.685493 -0.652328
2010-07-06 09:40:27 51°32.902 2°56.243 17.4426 4.156282 31.648138 -0.687152
2010-07-06 09:41:27 51°32.903 2°56.222 17.4462 4.153432 31.598964 -0.652328
2010-07-06 09:42:27 51°32.907 2°56.213 17.4467 4.15206 31.582788 -0.652328
2010-07-06 09:43:27 51°32.912 2°56.213 17.4631 4.151638 31.57694 -0.652328
2010-07-06 09:44:27 51°32.918 2°56.219 17.4442 4.151427 31.570052 -0.687152
2010-07-06 09:45:27 51°32.925 2°56.229 17.4374 4.151111 31.571898 -0.652328
2010-07-06 09:46:27 51°32.931 2°56.242 17.4523 4.1509 31.568408 -0.652328
2010-07-06 09:47:27 51°32.937 2°56.256 17.4406 4.1509 31.567842 -0.617504
2010-07-06 09:48:27 51°32.941 2°56.274 17.448 4.151111 31.570198 -0.617504
2010-07-06 09:49:27 51°32.945 2°56.295 17.4536 4.151111 31.570198 -0.617504
2010-07-06 09:50:27 51°32.95 2°56.317 17.4555 4.151427 31.56722 -0.58268
2010-07-06 09:51:27 51°32.954 2°56.342 17.456 4.151849 31.566837 -0.58268
2010-07-06 09:52:27 51°32.959 2°56.369 17.447 4.150372 31.558837 -0.547855
2010-07-06 09:53:27 51°32.963 2°56.395 17.4497 4.151427 31.572317 -0.58268
2010-07-06 09:54:27 51°32.969 2°56.42 17.4363 4.150689 31.572849 -0.58268
2010-07-06 09:55:27 51°32.973 2°56.446 17.435 4.150583 31.573653 -0.547855
2010-07-06 09:56:27 51°32.978 2°56.471 17.432 4.150267 31.574367 -0.547855
2010-07-06 09:57:27 51°32.983 2°56.496 17.4423 4.150478 31.575024 -0.547855
2010-07-06 09:58:27 51°32.989 2°56.521 17.4325 4.151005 31.573268 -0.513031
2010-07-06 09:59:27 51°32.995 2°56.546 17.4447 4.149423 31.560972 -0.547855
2010-07-06 10:00:27 51°33.001 2°56.57 17.4415 4.149212 31.558616 -0.547855
2010-07-06 10:01:27 51°33.007 2°56.594 17.4588 4.150372 31.566198 -0.513031
2010-07-06 10:02:27 51°33.012 2°56.618 17.4598 4.151216 31.566563 -0.547855
2010-07-06 10:03:27 51°33.018 2°56.642 17.4654 4.151322 31.564627 -0.547855
2010-07-06 10:04:27 51°33.024 2°56.667 17.4795 4.152271 31.562492 -0.513031
2010-07-06 10:05:27 51°33.03 2°56.69 17.4817 4.152904 31.563333 -0.547855
2010-07-06 10:06:27 51°33.035 2°56.714 17.5005 4.152799 31.557347 -0.547855
2010-07-06 10:07:27 51°33.041 2°56.737 17.504 4.153115 31.55494 -0.547855
2010-07-06 10:08:27 51°33.047 2°56.761 17.5205 4.153537 31.546647 -0.58268
2010-07-06 10:09:27 51°33.053 2°56.785 17.539 4.154064 31.540948 -0.58268
2010-07-06 10:10:27 51°33.059 2°56.809 17.55 4.155752 31.537744 -0.547855
2010-07-06 10:11:27 51°33.064 2°56.834 17.5725 4.155224 31.525945 -0.547855
2010-07-06 10:12:27 51°33.07 2°56.859 17.5756 4.156174 31.521579 -0.58268
2010-07-06 10:13:27 51°33.075 2°56.884 17.5874 4.15649 31.515805 -0.547855
2010-07-06 10:14:27 51°33.079 2°56.91 17.5832 4.156701 31.5159 -0.547855
2010-07-06 10:15:27 51°33.084 2°56.935 17.5948 4.157123 31.514401 -0.513031
2010-07-06 10:16:27 51°33.089 2°56.96 17.6042 4.157545 31.51065 -0.58268
2010-07-06 10:17:27 51°33.093 2°56.984 17.6139 4.157439 31.50413 -0.547855
2010-07-06 10:18:27 51°33.099 2°57.008 17.6226 4.157228 31.497846 -0.547855
2010-07-06 10:19:27 51°33.102 2°57.032 17.6283 4.157545 31.493211 -0.547855
2010-07-06 10:20:27 51°33.109 2°57.057 17.6307 4.156701 31.479335 -0.58268
2010-07-06 10:21:27 51°33.113 2°57.081 17.6375 4.156911 31.4755 -0.547855
2010-07-06 10:22:27 51°33.117 2°57.104 17.6408 4.156067 31.469494 -0.547855
2010-07-06 10:23:27 51°33.12 2°57.128 17.6404 4.156067 31.467809 -0.547855
2010-07-06 10:24:27 51°33.125 2°57.151 17.6477 4.156278 31.465661 -0.58268
2010-07-06 10:25:27 51°33.1 2°57.069 17.6992 4.156278 31.459488 -0.58268
2010-07-06 10:26:27 51°33.108 2°56.848 17.7269 4.156383 31.419475 -0.58268
2010-07-06 10:27:27 51°33.123 2°56.602 17.6715 4.160603 31.43939 -0.687152
2010-07-06 10:28:27 51°33.138 2°56.352 17.6507 4.16282 31.506862 -0.652328
2010-07-06 10:29:27 51°33.145 2°56.117 17.6353 4.162187 31.508259 -0.687152
2010-07-06 10:30:27 51°33.121 2°55.967 17.6575 4.157123 31.476721 -0.652328
2010-07-06 10:31:27 51°33.104 2°55.919 17.6826 4.158599 31.474597 -0.687152
2010-07-06 10:32:27 51°33.107 2°55.926 17.6967 4.161131 31.476333 -0.652328
2010-07-06 10:33:27 51°33.109 2°55.939 17.6856 4.160604 31.473003 -0.652328
2010-07-06 10:34:27 51°33.111 2°55.953 17.6698 4.160709 31.475576 -0.617504
2010-07-06 10:35:27 51°33.112 2°55.969 17.6523 4.159971 31.478319 -0.617504
2010-07-06 10:36:27 51°33.113 2°55.986 17.672 4.158599 31.476842 -0.617504
2010-07-06 10:37:27 51°33.114 2°56.004 17.6728 4.159443 31.472183 -0.58268
2010-07-06 10:38:27 51°33.115 2°56.023 17.6801 4.15976 31.473171 -0.58268
2010-07-06 10:39:27 51°33.102 2°55.989 17.6893 4.159127 31.463902 -0.547855
2010-07-06 10:40:27 51°33.081 2°55.869 17.6866 4.159549 31.45457 -0.58268
2010-07-06 10:41:27 51°33.072 2°55.812 17.6862 4.159443 31.458724 -0.617504
2010-07-06 10:42:27 51°33.07 2°55.778 17.7028 4.157227 31.43667 -0.652328
2010-07-06 10:43:27 51°33.07 2°55.754 17.7236 4.161237 31.457044 -0.617504
2010-07-06 10:44:27 51°33.07 2°55.739 17.7419 4.158176 31.419494 -0.652328
2010-07-06 10:45:27 51°33.072 2°55.731 17.7411 4.164929 31.465218 -0.652328
2010-07-06 10:46:27 51°33.07 2°55.728 17.7489 4.165457 31.467425 -0.652328
2010-07-06 10:47:27 51°33.07 2°55.73 17.7538 4.166195 31.47309 -0.617504
2010-07-06 10:48:27 51°33.071 2°55.732 17.7566 4.166828 31.470588 -0.617504
2010-07-06 10:49:27 51°33.071 2°55.735 17.7668 4.165245 31.449982 -0.617504
2010-07-06 10:50:27 51°33.072 2°55.739 17.768 4.168622 31.473388 -0.617504
2010-07-06 10:51:27 51°33.073 2°55.744 17.7639 4.168833 31.475165 -0.617504
2010-07-06 10:52:27 51°33.073 2°55.752 17.7472 4.1682 31.473749 -0.58268
2010-07-06 10:53:27 51°33.072 2°55.758 17.7538 4.166195 31.469171 -0.617504
2010-07-06 10:54:27 51°33.072 2°55.766 17.7534 4.166617 31.469369 -0.58268
2010-07-06 10:55:27 51°33.07 2°55.776 17.7458 4.16609 31.465484 -0.547855
2010-07-06 10:56:27 51°33.069 2°55.787 17.7444 4.165668 31.465285 -0.547855
2010-07-06 10:57:27 51°33.067 2°55.797 17.7453 4.165668 31.464166 -0.547855
2010-07-06 10:58:27 51°33.065 2°55.806 17.7385 4.165351 31.464297 -0.547855
2010-07-06 10:59:27 51°33.063 2°55.815 17.7388 4.164191 31.458994 -0.547855
2010-07-06 11:00:27 51°33.06 2°55.822 17.7339 4.164085 31.458664 -0.547855
2010-07-06 11:01:27 51°33.057 2°55.829 17.7386 4.163663 31.457906 -0.547855
2010-07-06 11:02:27 51°33.054 2°55.835 17.7402 4.164085 31.459224 -0.547855
2010-07-06 11:03:27 51°33.051 2°55.84 17.7419 4.164402 31.456295 -0.478207
2010-07-06 11:04:27 51°33.047 2°55.845 17.7532 4.16419 31.453398 -0.513031
2010-07-06 11:05:27 51°33.043 2°55.85 17.7632 4.165668 31.45913 -0.547855
2010-07-06 11:06:27 51°33.041 2°55.854 17.7604 4.165668 31.455215 -0.513031
2010-07-06 11:07:27 51°33.036 2°55.859 17.7624 4.165456 31.452319 -0.513031
2010-07-06 11:08:27 51°33.032 2°55.863 17.7623 4.165562 31.452648 -0.513031
2010-07-06 11:09:27 51°33.028 2°55.867 17.7699 4.165245 31.449423 -0.513031
2010-07-06 11:10:27 51°33.024 2°55.872 17.7759 4.165562 31.444822 -0.547855
2010-07-06 11:11:27 51°33.019 2°55.877 17.7833 4.166195 31.446241 -0.547855
2010-07-06 11:12:27 51°33.015 2°55.881 17.7896 4.166406 31.442989 -0.513031
2010-07-06 11:13:27 51°33.01 2°55.886 17.7905 4.166828 31.444307 -0.513031
2010-07-06 11:14:27 51°33.005 2°55.892 17.7997 4.167144 31.444179 -0.513031
2010-07-06 11:15:27 51°32.989 2°55.883 17.8037 4.167777 31.443922 -0.547855
2010-07-06 11:16:27 51°32.93 2°55.901 17.7908 4.167777 31.440572 -0.547855
2010-07-06 11:17:27 51°32.849 2°55.926 17.77 4.166617 31.434712 -0.617504
2010-07-06 11:18:27 51°32.776 2°55.859 17.7743 4.162396 31.423753 -0.617504
2010-07-06 11:19:27 51°32.748 2°55.77 17.758 4.161236 31.412303 -0.617504
2010-07-06 11:20:27 51°32.745 2°55.736 17.7681 4.160497 31.411109 -0.617504
2010-07-06 11:21:27 51°32.746 2°55.716 17.7557 4.160603 31.410881 -0.617504
2010-07-06 11:22:27 51°32.747 2°55.701 17.7493 4.159548 31.410372 -0.617504
2010-07-06 11:23:27 51°32.748 2°55.691 17.7474 4.159442 31.4106 -0.617504
2010-07-06 11:24:27 51°32.748 2°55.683 17.7463 4.159337 31.409711 -0.617504
2010-07-06 11:25:27 51°32.746 2°55.679 17.7431 4.159442 31.413394 -0.58268
2010-07-06 11:26:27 51°32.743 2°55.676 17.7404 4.158598 31.410752 -0.547855
2010-07-06 11:27:27 51°32.739 2°55.675 17.7356 4.158704 31.411641 -0.58268
2010-07-06 11:28:27 51°32.733 2°55.676 17.7285 4.158282 31.413115 -0.547855
2010-07-06 11:29:27 51°32.728 2°55.679 17.7194 4.15786 31.412353 -0.513031
2010-07-06 11:30:27 51°32.723 2°55.682 17.705 4.157227 31.417081 -0.513031
2010-07-06 11:31:27 51°32.718 2°55.687 17.7022 4.155222 31.407451 -0.513031
2010-07-06 11:32:27 51°32.715 2°55.692 17.6911 4.154484 31.407376 -0.513031
2010-07-06 11:33:27 51°32.711 2°55.697 17.684 4.153429 31.406869 -0.547855
2010-07-06 11:34:27 51°32.708 2°55.703 17.6831 4.153007 31.404988 -0.513031
2010-07-06 11:35:27 51°32.704 2°55.71 17.6757 4.15269 31.402878 -0.513031
2010-07-06 11:36:27 51°32.7 2°55.716 17.6707 4.151213 31.39937 -0.513031
2010-07-06 11:37:27 51°32.698 2°55.722 17.6719 4.151846 31.404711 -0.513031
2010-07-06 11:38:27 51°32.695 2°55.728 17.6699 4.151213 31.402168 -0.478207
2010-07-06 11:39:27 51°32.691 2°55.734 17.6736 4.151002 31.400388 -0.513031
2010-07-06 11:40:27 51°32.688 2°55.74 17.6682 4.151846 31.404711 -0.513031
2010-07-06 11:41:27 51°32.684 2°55.746 17.6696 4.151319 31.401379 -0.513031
2010-07-06 11:42:27 51°32.68 2°55.753 17.6776 4.151319 31.401939 -0.478207
2010-07-06 11:43:27 51°32.676 2°55.759 17.6741 4.15153 31.4026 -0.478207
2010-07-06 11:44:27 51°32.673 2°55.765 17.6758 4.151741 31.402142 -0.513031
2010-07-06 11:45:27 51°32.668 2°55.77 17.6755 4.151635 31.40405 -0.513031
2010-07-06 11:46:27 51°32.662 2°55.774 17.6832 4.152163 31.404023 -0.478207
2010-07-06 11:47:27 51°32.656 2°55.778 17.6892 4.153112 31.406997 -0.478207
2010-07-06 11:48:27 51°32.65 2°55.781 17.6902 4.153429 31.40575 -0.547855
2010-07-06 11:49:27 51°32.643 2°55.785 17.6945 4.15364 31.406411 -0.547855
2010-07-06 11:50:27 51°32.637 2°55.789 17.7033 4.153851 31.407072 -0.513031
2010-07-06 11:51:27 51°32.63 2°55.792 17.7171 4.154589 31.402672 -0.513031
2010-07-06 11:52:27 51°32.623 2°55.795 17.7373 4.155539 31.399497 -0.513031
2010-07-06 11:53:27 51°32.615 2°55.797 17.7526 4.157438 31.400415 -0.547855
2010-07-06 11:54:27 51°32.608 2°55.799 17.7621 4.158282 31.399707 -0.513031
2010-07-06 11:55:27 51°32.592 2°55.781 17.7799 4.159653 31.402884 -0.513031
2010-07-06 11:56:27 51°32.58 2°55.711 17.8434 4.161341 31.399238 -0.547855
2010-07-06 11:57:27 51°32.594 2°55.631 17.8602 4.166299 31.395808 -0.617504
2010-07-06 11:58:27 51°32.625 2°55.549 17.8624 4.167882 31.399089 -0.652328
2010-07-06 11:59:27 51°32.67 2°55.483 17.8583 4.168093 31.400862 -0.617504
2010-07-06 12:00:27 51°32.709 2°55.453 17.8691 4.169254 31.406719 -0.617504
2010-07-06 12:01:27 51°32.746 2°55.439 17.8408 4.169359 31.404265 -0.687152
2010-07-06 12:02:27 51°32.784 2°55.432 17.7726 4.166616 31.415742 -0.652328
2010-07-06 12:03:27 51°32.81 2°55.429 17.7636 4.162607 31.419944 -0.652328
2010-07-06 12:04:27 51°32.829 2°55.426 17.763 4.15902 31.39532 -0.617504
2010-07-06 12:05:27 51°32.852 2°55.432 17.7404 4.160708 31.411769 -0.617504
2010-07-06 12:06:27 51°32.867 2°55.47 17.749 4.157965 31.410447 -0.58268
2010-07-06 12:07:27 51°32.866 2°55.496 17.7847 4.159231 31.403238 -0.617504
2010-07-06 12:08:27 51°32.86 2°55.518 17.8178 4.165773 31.434866 -0.58268
2010-07-06 12:09:27 51°32.851 2°55.549 17.8544 4.169782 31.442927 -0.58268
2010-07-06 12:10:27 51°32.836 2°55.589 17.8694 4.174213 31.452857 -0.58268
2010-07-06 12:11:27 51°32.819 2°55.62 17.8634 4.174951 31.452932 -0.617504
2010-07-06 12:12:27 51°32.804 2°55.639 17.8991 4.175795 31.457796 -0.58268
2010-07-06 12:13:27 51°32.79 2°55.655 17.9149 4.178539 31.457994 -0.58268
2010-07-06 12:14:27 51°32.776 2°55.671 17.9403 4.180016 31.457589 -0.58268
2010-07-06 12:15:27 51°32.764 2°55.687 17.9819 4.183603 31.464879 -0.58268
2010-07-06 12:16:27 51°32.753 2°55.702 18.0097 4.186979 31.463167 -0.58268
2010-07-06 12:17:27 51°32.741 2°55.718 17.99 4.190038 31.468811 -0.58268
2010-07-06 12:18:27 51°32.731 2°55.732 17.9377 4.187717 31.467692 -0.58268
2010-07-06 12:19:27 51°32.718 2°55.745 17.8702 4.181915 31.465182 -0.58268
2010-07-06 12:20:27 51°32.708 2°55.757 17.7767 4.175057 31.45828 -0.547855
2010-07-06 12:21:27 51°32.694 2°55.786 17.7292 4.166933 31.450783 -0.547855
2010-07-06 12:22:27 51°32.648 2°55.837 17.7153 4.161869 31.443347 -0.547855
2010-07-06 12:23:26 51°32.51 2°55.855 17.7882 4.16092 31.428075 -0.547855
2010-07-06 12:24:25 51°32.29 2°55.839 17.8562 4.164507 31.43035 -0.547855
2010-07-06 12:25:24 51°32.066 2°55.82 17.9409 4.167143 31.378974 -0.617504
2010-07-06 12:26:23 51°31.842 2°55.773 17.9795 4.170097 31.351579 -0.547855
2010-07-06 12:27:23 51°31.614 2°55.726 17.986 4.169463 31.316366 -0.547855
2010-07-06 12:28:23 51°31.388 2°55.684 18.0142 4.158595 31.208243 -0.513031
2010-07-06 12:29:23 51°31.162 2°55.639 17.9982 4.153952 31.17434 -0.513031
2010-07-06 12:30:23 51°30.937 2°55.592 17.8486 4.148572 31.156259 -0.547855
2010-07-06 12:31:23 51°30.711 2°55.545 17.7894 4.138867 31.191321 -0.547855
2010-07-06 12:32:23 51°30.483 2°55.498 17.8239 4.128949 31.110193 -0.617504
2010-07-06 12:33:23 51°30.255 2°55.452 17.8384 4.127471 31.082885 -0.617504
2010-07-06 12:34:23 51°30.027 2°55.405 18.082 4.127998 31.070227 -0.652328
2010-07-06 12:35:23 51°29.798 2°55.359 18.184 4.13823 30.97337 -0.58268
2010-07-06 12:36:23 51°29.57 2°55.312 18.35 4.148146 30.973836 -0.547855
2010-07-06 12:37:23 51°29.343 2°55.267 18.3455 4.159962 30.963065 -0.547855
2010-07-06 12:38:23 51°29.115 2°55.218 18.4543 4.145612 30.839139 -0.547855
2010-07-06 12:39:23 51°28.89 2°55.169 18.5564 4.150253 30.778732 -0.547855
2010-07-06 12:40:23 51°28.663 2°55.121 18.5762 4.145398 30.684141 -0.443383
2010-07-06 12:41:23 51°28.436 2°55.069 18.7303 4.145925 30.6523 -0.513031
2010-07-06 12:42:23 51°28.209 2°55.015 18.6888 4.15236 30.631536 -0.513031
2010-07-06 12:43:23 51°27.982 2°54.961 18.7188 4.148772 30.57296 -0.443383
2010-07-06 12:44:23 51°27.756 2°54.891 18.4899 4.143603 30.6008 -0.58268
2010-07-06 12:45:23 51°27.529 2°54.818 18.4036 4.131999 30.627316 -0.617504
2010-07-06 12:46:23 51°27.3 2°54.746 18.5285 4.128518 30.639077 -0.687152
2010-07-06 12:47:23 51°27.069 2°54.673 18.6507 4.135059 30.639804 -0.652328
2010-07-06 12:48:23 51°26.838 2°54.604 18.8033 4.145186 30.589462 -0.547855
2010-07-06 12:49:23 51°26.606 2°54.528 19.2098 4.159639 30.632635 -0.58268
2010-07-06 12:50:23 51°26.375 2°54.451 19.2236 4.172928 30.424075 -0.58268
2010-07-06 12:51:23 51°26.147 2°54.374 19.077 4.163327 30.382795 -0.58268
2010-07-06 12:52:23 51°25.918 2°54.297 19.0762 4.152567 30.432389 -0.617504
2010-07-06 12:53:23 51°25.69 2°54.222 18.8803 4.153199 30.352196 -0.652328
2010-07-06 12:54:23 51°25.462 2°54.145 18.97 4.152568 30.480502 -0.617504
2010-07-06 12:55:23 51°25.233 2°54.071 18.8916 4.157527 30.495405 -0.652328
2010-07-06 12:56:23 51°25.003 2°53.994 19.0493 4.162908 30.56093 -0.652328
2010-07-06 12:57:23 51°24.771 2°53.916 19.1423 4.177679 30.580473 -0.617504
2010-07-06 12:58:23 51°24.539 2°53.841 19.241 4.191712 30.655169 -0.58268
2010-07-06 12:59:23 51°24.309 2°53.763 19.293 4.206693 30.677808 -0.687152
2010-07-06 13:00:23 51°24.08 2°53.684 19.067 4.210069 30.678637 -0.652328
2010-07-06 13:01:23 51°23.852 2°53.604 18.8967 4.191396 30.687734 -0.617504
2010-07-06 13:02:23 51°23.622 2°53.524 19.0515 4.184117 30.720337 -0.721976
2010-07-06 13:03:23 51°23.393 2°53.442 19.4936 4.179366 30.520607 -0.617504
2010-07-06 13:04:23 51°23.163 2°53.358 19.6464 4.18622 30.356942 -0.58268
2010-07-06 13:05:23 51°22.933 2°53.276 19.6314 4.192338 30.304942 -0.547855
2010-07-06 13:06:23 51°22.705 2°53.19 19.5563 4.198037 30.412382 -0.617504
2010-07-06 13:07:23 51°22.476 2°53.105 19.551 4.199619 30.405138 -0.617504
2010-07-06 13:08:23 51°22.245 2°53.03 19.8202 4.207638 30.420089 -0.617504
2010-07-06 13:09:23 51°22.013 2°53.025 19.3931 4.227473 30.45239 -0.687152
2010-07-06 13:10:23 51°21.785 2°53.019 19.2767 4.218404 30.693679 -0.7568
2010-07-06 13:11:23 51°21.556 2°53.005 19.0684 4.210809 30.722791 -0.791624
2010-07-06 13:12:23 51°21.327 2°52.98 19.107 4.187069 30.652413 -0.861272
2010-07-06 13:13:23 51°21.097 2°52.928 19.2021 4.186752 30.61839 -0.826448
2010-07-06 13:14:23 51°20.867 2°52.872 19.2626 4.194348 30.605038 -0.826448
2010-07-06 13:15:23 51°20.634 2°52.814 19.3701 4.19382 30.558564 -0.826448
2010-07-06 13:16:23 51°20.4 2°52.775 19.5127 4.202049 30.537664 -0.791624
2010-07-06 13:17:23 51°20.166 2°52.738 19.6289 4.215553 30.556505 -0.861272
2010-07-06 13:18:23 51°19.933 2°52.703 19.6452 4.232751 30.606155 -0.791624
2010-07-06 13:19:23 51°19.7 2°52.665 19.5071 4.240139 30.69572 -0.721976
2010-07-06 13:20:23 51°19.467 2°52.649 19.4344 4.235603 30.738384 -0.721976
2010-07-06 13:21:23 51°19.234 2°52.638 19.4508 4.233176 30.769218 -0.687152
2010-07-06 13:22:23 51°19.001 2°52.624 19.4936 4.241934 30.817792 -0.687152
2010-07-06 13:23:23 51°18.769 2°52.614 19.5072 4.250587 30.853985 -0.652328
2010-07-06 13:24:23 51°18.536 2°52.601 19.5245 4.257868 30.915052 -0.687152
2010-07-06 13:25:23 51°18.303 2°52.587 19.5383 4.265254 30.94926 -0.652328
2010-07-06 13:26:23 51°18.07 2°52.586 19.4788 4.268737 30.98374 -0.687152
2010-07-06 13:27:23 51°17.837 2°52.601 19.3764 4.264094 30.996427 -0.721976
2010-07-06 13:28:23 51°17.604 2°52.629 19.2606 4.257131 31.010312 -0.721976
2010-07-06 13:29:23 51°17.375 2°52.692 19.1732 4.250273 31.033091 -0.687152
2010-07-06 13:30:23 51°17.151 2°52.776 19.1363 4.243838 31.049939 -0.687152
2010-07-06 13:31:23 51°16.932 2°52.888 19.1612 4.244049 31.064394 -0.652328
2010-07-06 13:32:23 51°16.714 2°53 19.3309 4.247848 31.077371 -0.617504
2010-07-06 13:33:23 51°16.491 2°53.111 20.0333 4.251645 31.009418 -0.652328
2010-07-06 13:34:23 51°16.274 2°53.226 20.1971 4.259128 30.574689 -0.826448
2010-07-06 13:35:23 51°16.063 2°53.359 20.2866 4.258916 30.562806 -0.791624
2010-07-06 13:36:23 51°15.853 2°53.49 20.1704 4.268518 30.568371 -0.721976
2010-07-06 13:37:23 51°15.644 2°53.621 20.1299 4.278646 30.560955 -0.687152
2010-07-06 13:38:23 51°15.445 2°53.779 20.1821 4.302174 30.507202 -0.652328
2010-07-06 13:39:23 51°15.27 2°53.985 20.2046 4.342689 30.375744 -0.721976
2010-07-06 13:40:23 51°15.1 2°54.2 20.2925 4.368123 30.57092 -0.652328
2010-07-06 13:41:23 51°14.938 2°54.427 20.411 4.389759 30.762317 -0.617504
2010-07-06 13:42:23 51°14.763 2°54.652 20.5198 4.390181 30.759667 -0.652328
2010-07-06 13:43:23 51°14.61 2°54.853 20.6382 4.388175 30.717729 -0.721976
2010-07-06 13:44:23 51°14.469 2°55.036 20.7313 4.389124 30.677226 -0.687152
2010-07-06 13:45:23 51°14.322 2°55.212 20.8239 4.350285 30.29503 -0.721976
2010-07-06 13:46:23 51°14.196 2°55.349 21.8822 2.283967 14.871116 -0.965744
2010-07-06 13:47:23 51°14.08 2°55.44 21.8942 2.274711 14.808316 -1.000568
2010-07-06 13:48:23 51°13.969 2°55.52 21.8943 2.27103 14.780014 -0.965744
2010-07-06 13:49:23 51°13.872 2°55.59 21.9418 2.269032 14.764628 -1.000568
2010-07-06 13:50:23 51°13.792 2°55.656 21.9934 2.266823 14.748454 -1.000568
2010-07-06 13:51:23 51°13.73 2°55.743 22.0326 2.264825 14.733543 -1.000568
2010-07-06 13:52:23 51°13.687 2°55.847 22.0693 2.264614 14.729943 -0.965744
2010-07-06 13:53:23 51°13.666 2°55.937 22.1148 2.262511 14.710788 -0.965744
2010-07-06 13:54:23 51°13.662 2°55.959 22.1411 2.263142 14.712237 -0.965744